sensor_id;sensor_type;location;lat;lon;timestamp;pressure;altitude;pressure_sealevel;temperature;humidity
34983;BME280;21187;50.976;13.720;2023-09-07T00:03:29;98976.63;;;20.18;47.38
34983;BME280;21187;50.976;13.720;2023-09-07T00:08:31;98981.38;;;20.14;47.47
34983;BME280;21187;50.976;13.720;2023-09-07T00:13:35;98984.13;;;19.99;47.89
34983;BME280;21187;50.976;13.720;2023-09-07T00:18:37;98973.94;;;19.89;48.00
34983;BME280;21187;50.976;13.720;2023-09-07T00:23:40;98984.13;;;19.85;48.13
34983;BME280;21187;50.976;13.720;2023-09-07T00:28:42;98983.75;;;19.83;48.08
34983;BME280;21187;50.976;13.720;2023-09-07T00:33:44;98983.34;;;19.88;47.75
34983;BME280;21187;50.976;13.720;2023-09-07T00:38:46;98984.50;;;19.94;47.49
34983;BME280;21187;50.976;13.720;2023-09-07T00:43:47;98981.38;;;20.03;47.88
34983;BME280;21187;50.976;13.720;2023-09-07T00:48:49;98986.88;;;20.17;47.46
34983;BME280;21187;50.976;13.720;2023-09-07T00:53:52;98971.16;;;20.25;47.14
34983;BME280;21187;50.976;13.720;2023-09-07T00:58:55;98965.25;;;20.23;47.22
34983;BME280;21187;50.976;13.720;2023-09-07T01:03:58;98973.13;;;20.17;47.27
34983;BME280;21187;50.976;13.720;2023-09-07T01:09:17;98964.47;;;20.15;47.27
34983;BME280;21187;50.976;13.720;2023-09-07T01:14:20;98973.50;;;20.08;47.38
34983;BME280;21187;50.976;13.720;2023-09-07T01:19:23;98968.03;;;19.94;47.71
34983;BME280;21187;50.976;13.720;2023-09-07T01:24:26;98970.78;;;19.83;47.89
34983;BME280;21187;50.976;13.720;2023-09-07T01:29:31;98962.91;;;19.74;48.10
34983;BME280;21187;50.976;13.720;2023-09-07T01:34:33;98965.25;;;19.69;48.29
34983;BME280;21187;50.976;13.720;2023-09-07T01:39:35;98964.47;;;19.65;48.29
34983;BME280;21187;50.976;13.720;2023-09-07T01:44:37;98970.75;;;19.72;48.20
34983;BME280;21187;50.976;13.720;2023-09-07T01:49:39;98966.84;;;19.77;47.82
34983;BME280;21187;50.976;13.720;2023-09-07T01:54:41;98970.34;;;19.77;47.99
34983;BME280;21187;50.976;13.720;2023-09-07T01:59:43;98968.75;;;19.58;48.23
34983;BME280;21187;50.976;13.720;2023-09-07T02:04:45;98965.25;;;19.51;48.38
34983;BME280;21187;50.976;13.720;2023-09-07T02:09:47;98972.25;;;19.37;48.46
34983;BME280;21187;50.976;13.720;2023-09-07T02:14:49;98961.28;;;19.30;48.59
34983;BME280;21187;50.976;13.720;2023-09-07T02:19:51;98960.50;;;19.29;48.56
34983;BME280;21187;50.976;13.720;2023-09-07T02:24:53;98957.75;;;19.26;48.50
34983;BME280;21187;50.976;13.720;2023-09-07T02:29:55;98962.81;;;19.24;48.32
34983;BME280;21187;50.976;13.720;2023-09-07T02:34:57;98956.16;;;19.18;48.55
34983;BME280;21187;50.976;13.720;2023-09-07T02:39:59;98952.59;;;19.06;48.64
34983;BME280;21187;50.976;13.720;2023-09-07T02:45:02;98951.41;;;19.04;48.74
34983;BME280;21187;50.976;13.720;2023-09-07T02:50:04;98958.44;;;19.01;48.59
34983;BME280;21187;50.976;13.720;2023-09-07T02:55:07;98957.25;;;18.95;48.59
34983;BME280;21187;50.976;13.720;2023-09-07T03:00:10;98965.81;;;18.83;49.12
34983;BME280;21187;50.976;13.720;2023-09-07T03:05:17;98960.25;;;18.68;49.51
34983;BME280;21187;50.976;13.720;2023-09-07T03:10:19;98967.28;;;18.58;49.72
34983;BME280;21187;50.976;13.720;2023-09-07T03:15:22;98968.75;;;18.49;49.97
34983;BME280;21187;50.976;13.720;2023-09-07T03:20:24;98957.00;;;18.44;50.35
34983;BME280;21187;50.976;13.720;2023-09-07T03:25:26;98965.22;;;18.44;50.24
34983;BME280;21187;50.976;13.720;2023-09-07T03:30:28;98953.47;;;18.44;50.17
34983;BME280;21187;50.976;13.720;2023-09-07T03:35:31;98953.09;;;18.45;50.08
34983;BME280;21187;50.976;13.720;2023-09-07T03:40:33;98960.09;;;18.39;50.26
34983;BME280;21187;50.976;13.720;2023-09-07T03:45:35;98956.97;;;18.37;50.27
34983;BME280;21187;50.976;13.720;2023-09-07T03:50:37;98964.78;;;18.35;50.32
34983;BME280;21187;50.976;13.720;2023-09-07T03:55:42;98957.72;;;18.31;50.40
34983;BME280;21187;50.976;13.720;2023-09-07T04:00:46;98968.69;;;18.31;50.39
34983;BME280;21187;50.976;13.720;2023-09-07T04:05:50;98960.06;;;18.32;50.38
34983;BME280;21187;50.976;13.720;2023-09-07T04:10:52;98972.53;;;18.22;50.62
34983;BME280;21187;50.976;13.720;2023-09-07T04:15:54;98966.63;;;18.17;50.90
34983;BME280;21187;50.976;13.720;2023-09-07T04:21:06;98965.38;;;18.10;51.07
34983;BME280;21187;50.976;13.720;2023-09-07T04:26:10;98965.28;;;17.96;51.48
34983;BME280;21187;50.976;13.720;2023-09-07T04:31:13;98980.88;;;17.92;51.74
34983;BME280;21187;50.976;13.720;2023-09-07T04:36:15;98979.69;;;17.89;51.63
34983;BME280;21187;50.976;13.720;2023-09-07T04:41:20;98974.28;;;17.93;51.54
34983;BME280;21187;50.976;13.720;2023-09-07T04:46:22;98974.34;;;18.04;51.49
34983;BME280;21187;50.976;13.720;2023-09-07T04:51:25;98972.09;;;18.17;51.33
34983;BME280;21187;50.976;13.720;2023-09-07T04:56:28;98974.53;;;18.29;51.08
34983;BME280;21187;50.976;13.720;2023-09-07T05:01:31;98966.38;;;18.43;50.88
34983;BME280;21187;50.976;13.720;2023-09-07T05:06:34;98980.59;;;18.60;50.65
34983;BME280;21187;50.976;13.720;2023-09-07T05:11:40;98978.69;;;18.71;50.68
34983;BME280;21187;50.976;13.720;2023-09-07T05:16:43;98982.25;;;18.83;50.44
34983;BME280;21187;50.976;13.720;2023-09-07T05:21:46;98989.41;;;18.94;50.50
34983;BME280;21187;50.976;13.720;2023-09-07T05:26:49;98980.03;;;19.06;50.44
34983;BME280;21187;50.976;13.720;2023-09-07T05:31:52;98998.13;;;19.22;50.49
34983;BME280;21187;50.976;13.720;2023-09-07T05:36:54;98998.19;;;19.36;50.62
34983;BME280;21187;50.976;13.720;2023-09-07T05:41:56;99004.09;;;19.53;50.40
34983;BME280;21187;50.976;13.720;2023-09-07T05:46:58;99007.63;;;19.71;50.49
34983;BME280;21187;50.976;13.720;2023-09-07T05:52:02;99002.56;;;19.91;50.55
34983;BME280;21187;50.976;13.720;2023-09-07T05:57:04;99011.63;;;20.14;50.74
34983;BME280;21187;50.976;13.720;2023-09-07T06:02:06;99014.34;;;20.39;50.33
34983;BME280;21187;50.976;13.720;2023-09-07T06:07:08;99016.25;;;20.67;50.43
34983;BME280;21187;50.976;13.720;2023-09-07T06:12:10;99016.19;;;20.96;50.05
34983;BME280;21187;50.976;13.720;2023-09-07T06:17:12;99021.59;;;21.21;50.04
34983;BME280;21187;50.976;13.720;2023-09-07T06:22:15;99020.66;;;21.50;50.02
34983;BME280;21187;50.976;13.720;2023-09-07T06:27:17;99019.69;;;21.82;49.88
34983;BME280;21187;50.976;13.720;2023-09-07T06:32:20;99016.31;;;22.12;49.45
34983;BME280;21187;50.976;13.720;2023-09-07T06:37:22;99015.25;;;22.44;49.03
34983;BME280;21187;50.976;13.720;2023-09-07T06:42:26;99022.00;;;22.77;48.88
34983;BME280;21187;50.976;13.720;2023-09-07T06:47:36;99022.38;;;23.10;48.25
34983;BME280;21187;50.976;13.720;2023-09-07T06:52:39;99024.38;;;23.41;47.58
34983;BME280;21187;50.976;13.720;2023-09-07T06:57:42;99031.47;;;23.73;47.21
34983;BME280;21187;50.976;13.720;2023-09-07T07:02:44;99024.72;;;24.01;47.01
34983;BME280;21187;50.976;13.720;2023-09-07T07:07:46;99032.78;;;24.16;46.52
34983;BME280;21187;50.976;13.720;2023-09-07T07:12:49;99029.53;;;24.45;46.21
34983;BME280;21187;50.976;13.720;2023-09-07T07:17:51;99028.38;;;24.66;46.11
34983;BME280;21187;50.976;13.720;2023-09-07T07:22:53;99028.31;;;24.89;45.74
34983;BME280;21187;50.976;13.720;2023-09-07T07:27:55;99030.78;;;25.24;45.52
34983;BME280;21187;50.976;13.720;2023-09-07T07:32:57;99032.59;;;25.51;45.42
34983;BME280;21187;50.976;13.720;2023-09-07T07:38:00;99031.25;;;25.75;45.11
34983;BME280;21187;50.976;13.720;2023-09-07T07:43:02;99039.34;;;26.03;44.85
34983;BME280;21187;50.976;13.720;2023-09-07T07:48:05;99037.59;;;26.26;44.43
34983;BME280;21187;50.976;13.720;2023-09-07T07:53:12;99029.50;;;26.48;44.38
34983;BME280;21187;50.976;13.720;2023-09-07T07:58:15;99036.66;;;26.62;44.08
34983;BME280;21187;50.976;13.720;2023-09-07T08:03:17;99039.97;;;26.73;43.88
34983;BME280;21187;50.976;13.720;2023-09-07T08:08:20;99030.78;;;26.89;43.54
34983;BME280;21187;50.976;13.720;2023-09-07T08:13:22;99034.28;;;27.06;43.15
34983;BME280;21187;50.976;13.720;2023-09-07T08:18:24;99032.13;;;27.27;42.73
34983;BME280;21187;50.976;13.720;2023-09-07T08:23:27;99027.44;;;27.36;42.44
34983;BME280;21187;50.976;13.720;2023-09-07T08:28:30;99026.59;;;27.52;42.39
34983;BME280;21187;50.976;13.720;2023-09-07T08:33:32;99025.69;;;27.68;41.96
34983;BME280;21187;50.976;13.720;2023-09-07T08:38:37;99020.69;;;27.89;41.45
34983;BME280;21187;50.976;13.720;2023-09-07T08:43:44;99005.75;;;28.09;41.31
34983;BME280;21187;50.976;13.720;2023-09-07T08:48:50;99017.72;;;28.31;40.93
34983;BME280;21187;50.976;13.720;2023-09-07T08:53:52;99027.22;;;28.56;40.42
34983;BME280;21187;50.976;13.720;2023-09-07T08:58:54;99030.47;;;28.77;39.82
34983;BME280;21187;50.976;13.720;2023-09-07T09:03:56;99028.28;;;28.94;39.67
34983;BME280;21187;50.976;13.720;2023-09-07T09:08:58;99029.03;;;28.94;39.36
34983;BME280;21187;50.976;13.720;2023-09-07T09:14:05;99015.56;;;29.15;38.73
34983;BME280;21187;50.976;13.720;2023-09-07T09:19:07;99024.38;;;29.35;38.63
34983;BME280;21187;50.976;13.720;2023-09-07T09:24:11;99026.00;;;29.55;37.86
34983;BME280;21187;50.976;13.720;2023-09-07T09:29:13;99026.34;;;29.66;37.05
34983;BME280;21187;50.976;13.720;2023-09-07T09:34:17;99021.88;;;29.78;37.07
34983;BME280;21187;50.976;13.720;2023-09-07T09:39:23;99019.94;;;29.88;36.61
34983;BME280;21187;50.976;13.720;2023-09-07T09:44:28;99009.72;;;30.03;36.22
34983;BME280;21187;50.976;13.720;2023-09-07T09:49:31;99014.69;;;30.18;36.10
34983;BME280;21187;50.976;13.720;2023-09-07T09:54:35;99003.53;;;30.36;35.42
34983;BME280;21187;50.976;13.720;2023-09-07T09:59:37;99011.34;;;30.51;35.20
34983;BME280;21187;50.976;13.720;2023-09-07T10:04:39;99011.66;;;30.62;35.28
34983;BME280;21187;50.976;13.720;2023-09-07T10:09:43;98998.75;;;30.74;34.77
34983;BME280;21187;50.976;13.720;2023-09-07T10:14:45;99012.84;;;30.89;34.90
34983;BME280;21187;50.976;13.720;2023-09-07T10:20:04;98991.06;;;31.02;34.44
34983;BME280;21187;50.976;13.720;2023-09-07T10:25:20;98982.34;;;31.19;34.11
34983;BME280;21187;50.976;13.720;2023-09-07T10:30:22;98986.34;;;31.27;33.45
34983;BME280;21187;50.976;13.720;2023-09-07T10:35:26;98990.56;;;31.32;32.98
34983;BME280;21187;50.976;13.720;2023-09-07T10:40:30;98987.88;;;31.38;32.65
34983;BME280;21187;50.976;13.720;2023-09-07T10:45:32;98987.78;;;31.56;32.11
34983;BME280;21187;50.976;13.720;2023-09-07T10:50:44;98969.72;;;31.66;31.34
34983;BME280;21187;50.976;13.720;2023-09-07T10:55:46;98981.00;;;31.81;31.33
34983;BME280;21187;50.976;13.720;2023-09-07T11:00:48;98984.91;;;31.99;30.75
34983;BME280;21187;50.976;13.720;2023-09-07T11:05:51;98966.38;;;32.01;30.42
34983;BME280;21187;50.976;13.720;2023-09-07T11:10:55;98972.22;;;32.13;29.88
34983;BME280;21187;50.976;13.720;2023-09-07T11:15:58;98970.94;;;32.23;29.66
34983;BME280;21187;50.976;13.720;2023-09-07T11:21:01;98965.53;;;32.34;29.08
34983;BME280;21187;50.976;13.720;2023-09-07T11:26:05;98973.56;;;32.42;28.98
34983;BME280;21187;50.976;13.720;2023-09-07T11:31:08;98964.41;;;32.56;28.70
34983;BME280;21187;50.976;13.720;2023-09-07T11:36:09;98975.63;;;32.71;28.36
34983;BME280;21187;50.976;13.720;2023-09-07T11:41:13;98968.03;;;32.87;28.29
34983;BME280;21187;50.976;13.720;2023-09-07T11:46:15;98966.34;;;33.10;28.15
34983;BME280;21187;50.976;13.720;2023-09-07T11:51:17;98968.88;;;33.08;28.03
34983;BME280;21187;50.976;13.720;2023-09-07T11:56:19;98957.56;;;33.02;28.01
34983;BME280;21187;50.976;13.720;2023-09-07T12:01:21;98969.47;;;33.12;27.93
34983;BME280;21187;50.976;13.720;2023-09-07T12:06:24;98959.94;;;33.24;27.41
34983;BME280;21187;50.976;13.720;2023-09-07T12:11:26;98960.34;;;33.17;27.32
34983;BME280;21187;50.976;13.720;2023-09-07T12:16:28;98951.63;;;33.15;27.07
34983;BME280;21187;50.976;13.720;2023-09-07T12:21:30;98951.63;;;33.15;27.18
34983;BME280;21187;50.976;13.720;2023-09-07T12:26:32;98943.53;;;33.17;27.43
34983;BME280;21187;50.976;13.720;2023-09-07T12:31:34;98949.69;;;33.21;27.21
34983;BME280;21187;50.976;13.720;2023-09-07T12:36:36;98935.47;;;33.10;26.91
34983;BME280;21187;50.976;13.720;2023-09-07T12:41:38;98931.84;;;33.04;27.14
34983;BME280;21187;50.976;13.720;2023-09-07T12:46:41;98939.72;;;33.20;26.83
34983;BME280;21187;50.976;13.720;2023-09-07T12:51:43;98922.19;;;33.25;26.51
34983;BME280;21187;50.976;13.720;2023-09-07T12:56:44;98920.00;;;33.29;26.29
34983;BME280;21187;50.976;13.720;2023-09-07T13:01:47;98914.38;;;33.29;25.87
34983;BME280;21187;50.976;13.720;2023-09-07T13:06:49;98925.09;;;33.31;25.66
34983;BME280;21187;50.976;13.720;2023-09-07T13:11:51;98917.97;;;33.15;25.88
34983;BME280;21187;50.976;13.720;2023-09-07T13:16:52;98907.41;;;33.10;25.33
34983;BME280;21187;50.976;13.720;2023-09-07T13:21:56;98915.28;;;33.06;25.19
34983;BME280;21187;50.976;13.720;2023-09-07T13:26:58;98902.50;;;33.05;24.86
34983;BME280;21187;50.976;13.720;2023-09-07T13:32:00;98895.94;;;33.08;24.30
34983;BME280;21187;50.976;13.720;2023-09-07T13:37:02;98898.38;;;32.85;24.08
34983;BME280;21187;50.976;13.720;2023-09-07T13:42:04;98901.56;;;32.78;23.95
34983;BME280;21187;50.976;13.720;2023-09-07T13:47:06;98890.66;;;32.80;23.81
34983;BME280;21187;50.976;13.720;2023-09-07T13:52:10;98897.53;;;32.79;23.99
34983;BME280;21187;50.976;13.720;2023-09-07T13:57:12;98888.13;;;32.82;24.42
34983;BME280;21187;50.976;13.720;2023-09-07T14:02:14;98890.25;;;32.87;24.29
34983;BME280;21187;50.976;13.720;2023-09-07T14:07:16;98882.25;;;32.80;24.22
34983;BME280;21187;50.976;13.720;2023-09-07T14:12:17;98884.53;;;32.66;24.30
34983;BME280;21187;50.976;13.720;2023-09-07T14:17:19;98885.91;;;32.56;24.29
34983;BME280;21187;50.976;13.720;2023-09-07T14:22:21;98884.34;;;32.55;24.56
34983;BME280;21187;50.976;13.720;2023-09-07T14:27:23;98884.53;;;32.51;24.44
34983;BME280;21187;50.976;13.720;2023-09-07T14:32:27;98885.03;;;32.50;24.59
34983;BME280;21187;50.976;13.720;2023-09-07T14:37:29;98885.50;;;32.33;24.40
34983;BME280;21187;50.976;13.720;2023-09-07T14:42:31;98883.16;;;32.17;24.29
34983;BME280;21187;50.976;13.720;2023-09-07T14:47:33;98882.56;;;32.13;24.49
34983;BME280;21187;50.976;13.720;2023-09-07T14:52:36;98879.66;;;32.07;24.69
34983;BME280;21187;50.976;13.720;2023-09-07T14:57:42;98876.16;;;31.97;24.87
34983;BME280;21187;50.976;13.720;2023-09-07T15:02:44;98878.06;;;31.91;25.03
34983;BME280;21187;50.976;13.720;2023-09-07T15:07:46;98874.38;;;31.85;25.11
34983;BME280;21187;50.976;13.720;2023-09-07T15:12:48;98867.88;;;31.79;24.96
34983;BME280;21187;50.976;13.720;2023-09-07T15:17:50;98864.69;;;31.71;25.21
34983;BME280;21187;50.976;13.720;2023-09-07T15:22:52;98870.81;;;31.60;25.17
34983;BME280;21187;50.976;13.720;2023-09-07T15:27:54;98861.88;;;31.47;25.23
34983;BME280;21187;50.976;13.720;2023-09-07T15:32:56;98851.66;;;31.44;25.47
34983;BME280;21187;50.976;13.720;2023-09-07T15:37:58;98863.78;;;31.41;25.51
34983;BME280;21187;50.976;13.720;2023-09-07T15:43:00;98866.28;;;31.39;25.51
34983;BME280;21187;50.976;13.720;2023-09-07T15:48:02;98862.41;;;31.36;25.95
34983;BME280;21187;50.976;13.720;2023-09-07T15:53:04;98862.75;;;31.29;25.66
34983;BME280;21187;50.976;13.720;2023-09-07T15:58:06;98860.81;;;31.20;25.70
34983;BME280;21187;50.976;13.720;2023-09-07T16:03:08;98854.47;;;31.10;25.66
34983;BME280;21187;50.976;13.720;2023-09-07T16:08:10;98860.72;;;30.96;26.12
34983;BME280;21187;50.976;13.720;2023-09-07T16:13:12;98857.47;;;30.88;26.55
34983;BME280;21187;50.976;13.720;2023-09-07T16:18:14;98856.28;;;30.80;26.69
34983;BME280;21187;50.976;13.720;2023-09-07T16:23:18;98862.38;;;30.69;26.61
34983;BME280;21187;50.976;13.720;2023-09-07T16:28:20;98856.34;;;30.61;26.59
34983;BME280;21187;50.976;13.720;2023-09-07T16:33:22;98849.22;;;30.51;27.21
34983;BME280;21187;50.976;13.720;2023-09-07T16:38:24;98850.16;;;30.38;27.03
34983;BME280;21187;50.976;13.720;2023-09-07T16:43:26;98856.25;;;30.28;27.30
34983;BME280;21187;50.976;13.720;2023-09-07T16:48:28;98852.38;;;30.16;27.80
34983;BME280;21187;50.976;13.720;2023-09-07T16:53:30;98860.16;;;30.02;28.05
34983;BME280;21187;50.976;13.720;2023-09-07T16:58:33;98860.31;;;29.90;27.95
34983;BME280;21187;50.976;13.720;2023-09-07T17:03:56;98843.81;;;29.82;28.53
34983;BME280;21187;50.976;13.720;2023-09-07T17:08:58;98849.88;;;29.71;28.53
34983;BME280;21187;50.976;13.720;2023-09-07T17:14:00;98853.59;;;29.59;29.00
34983;BME280;21187;50.976;13.720;2023-09-07T17:19:03;98851.09;;;29.43;29.78
34983;BME280;21187;50.976;13.720;2023-09-07T17:24:07;98847.91;;;29.13;30.18
34983;BME280;21187;50.976;13.720;2023-09-07T17:29:09;98847.22;;;28.99;30.12
34983;BME280;21187;50.976;13.720;2023-09-07T17:34:11;98856.81;;;28.89;30.38
34983;BME280;21187;50.976;13.720;2023-09-07T17:39:13;98847.47;;;28.83;30.62
34983;BME280;21187;50.976;13.720;2023-09-07T17:44:15;98852.84;;;28.68;30.61
34983;BME280;21187;50.976;13.720;2023-09-07T17:49:17;98865.41;;;28.50;31.13
34983;BME280;21187;50.976;13.720;2023-09-07T17:54:19;98856.16;;;28.31;31.46
34983;BME280;21187;50.976;13.720;2023-09-07T17:59:21;98862.25;;;28.17;32.23
34983;BME280;21187;50.976;13.720;2023-09-07T18:04:22;98852.84;;;28.01;32.84
34983;BME280;21187;50.976;13.720;2023-09-07T18:09:24;98870.03;;;27.87;33.23
34983;BME280;21187;50.976;13.720;2023-09-07T18:14:26;98864.63;;;27.70;33.57
34983;BME280;21187;50.976;13.720;2023-09-07T18:19:31;98875.78;;;27.58;34.01
34983;BME280;21187;50.976;13.720;2023-09-07T18:24:33;98864.38;;;27.43;34.37
34983;BME280;21187;50.976;13.720;2023-09-07T18:29:35;98873.16;;;27.28;34.64
34983;BME280;21187;50.976;13.720;2023-09-07T18:34:37;98874.47;;;27.11;35.04
34983;BME280;21187;50.976;13.720;2023-09-07T18:39:39;98875.72;;;26.97;35.22
34983;BME280;21187;50.976;13.720;2023-09-07T18:44:41;98874.50;;;26.85;35.36
34983;BME280;21187;50.976;13.720;2023-09-07T18:49:43;98881.16;;;26.74;35.69
34983;BME280;21187;50.976;13.720;2023-09-07T18:54:47;98874.66;;;26.65;35.99
34983;BME280;21187;50.976;13.720;2023-09-07T18:59:49;98876.97;;;26.53;36.18
34983;BME280;21187;50.976;13.720;2023-09-07T19:04:53;98874.16;;;26.40;36.25
34983;BME280;21187;50.976;13.720;2023-09-07T19:09:55;98884.81;;;26.29;36.69
34983;BME280;21187;50.976;13.720;2023-09-07T19:14:57;98884.66;;;26.20;36.79
34983;BME280;21187;50.976;13.720;2023-09-07T19:20:00;98887.84;;;26.05;37.02
34983;BME280;21187;50.976;13.720;2023-09-07T19:25:02;98874.63;;;25.93;37.41
34983;BME280;21187;50.976;13.720;2023-09-07T19:30:06;98873.94;;;25.89;37.32
34983;BME280;21187;50.976;13.720;2023-09-07T19:35:09;98881.28;;;25.83;37.41
34983;BME280;21187;50.976;13.720;2023-09-07T19:40:11;98871.03;;;25.80;37.44
34983;BME280;21187;50.976;13.720;2023-09-07T19:45:14;98886.31;;;25.71;37.81
34983;BME280;21187;50.976;13.720;2023-09-07T19:50:15;98882.00;;;25.54;37.99
34983;BME280;21187;50.976;13.720;2023-09-07T19:55:18;98880.91;;;25.31;38.62
34983;BME280;21187;50.976;13.720;2023-09-07T20:00:21;98874.31;;;25.08;38.81
34983;BME280;21187;50.976;13.720;2023-09-07T20:05:24;98885.81;;;24.90;38.99
34983;BME280;21187;50.976;13.720;2023-09-07T20:10:26;98886.97;;;24.73;39.36
34983;BME280;21187;50.976;13.720;2023-09-07T20:15:28;98880.16;;;24.57;39.58
34983;BME280;21187;50.976;13.720;2023-09-07T20:20:29;98882.13;;;24.57;39.74
34983;BME280;21187;50.976;13.720;2023-09-07T20:25:31;98893.91;;;24.61;39.62
34983;BME280;21187;50.976;13.720;2023-09-07T20:30:33;98890.38;;;24.61;39.74
34983;BME280;21187;50.976;13.720;2023-09-07T20:35:35;98884.91;;;24.57;39.68
34983;BME280;21187;50.976;13.720;2023-09-07T20:40:37;98890.00;;;24.58;39.60
34983;BME280;21187;50.976;13.720;2023-09-07T20:45:40;98882.50;;;24.59;39.81
34983;BME280;21187;50.976;13.720;2023-09-07T20:50:43;98870.84;;;24.48;39.81
34983;BME280;21187;50.976;13.720;2023-09-07T20:55:45;98882.50;;;24.19;40.33
34983;BME280;21187;50.976;13.720;2023-09-07T21:00:47;98879.16;;;23.84;40.91
34983;BME280;21187;50.976;13.720;2023-09-07T21:05:49;98878.31;;;23.63;41.42
34983;BME280;21187;50.976;13.720;2023-09-07T21:10:52;98878.81;;;23.58;41.49
34983;BME280;21187;50.976;13.720;2023-09-07T21:15:55;98877.00;;;23.48;41.36
34983;BME280;21187;50.976;13.720;2023-09-07T21:20:57;98869.81;;;23.26;41.80
34983;BME280;21187;50.976;13.720;2023-09-07T21:25:59;98868.91;;;23.09;42.19
34983;BME280;21187;50.976;13.720;2023-09-07T21:31:01;98865.59;;;22.91;42.68
34983;BME280;21187;50.976;13.720;2023-09-07T21:36:04;98876.91;;;22.73;42.76
34983;BME280;21187;50.976;13.720;2023-09-07T21:41:06;98875.56;;;22.54;43.24
34983;BME280;21187;50.976;13.720;2023-09-07T21:46:08;98874.22;;;22.31;43.64
34983;BME280;21187;50.976;13.720;2023-09-07T21:51:10;98875.78;;;22.32;43.58
34983;BME280;21187;50.976;13.720;2023-09-07T21:56:12;98873.88;;;22.29;43.50
34983;BME280;21187;50.976;13.720;2023-09-07T22:01:14;98874.31;;;22.24;43.57
34983;BME280;21187;50.976;13.720;2023-09-07T22:06:16;98878.41;;;22.08;43.79
34983;BME280;21187;50.976;13.720;2023-09-07T22:11:18;98869.91;;;21.92;43.87
34983;BME280;21187;50.976;13.720;2023-09-07T22:16:21;98856.63;;;21.83;43.96
34983;BME280;21187;50.976;13.720;2023-09-07T22:21:23;98857.47;;;21.76;44.03
34983;BME280;21187;50.976;13.720;2023-09-07T22:26:26;98855.06;;;21.78;43.80
34983;BME280;21187;50.976;13.720;2023-09-07T22:31:28;98861.28;;;21.90;43.48
34983;BME280;21187;50.976;13.720;2023-09-07T22:36:30;98858.78;;;22.03;43.08
34983;BME280;21187;50.976;13.720;2023-09-07T22:41:32;98850.44;;;22.06;43.00
34983;BME280;21187;50.976;13.720;2023-09-07T22:46:34;98856.38;;;22.05;42.90
34983;BME280;21187;50.976;13.720;2023-09-07T22:51:36;98853.72;;;21.98;42.89
34983;BME280;21187;50.976;13.720;2023-09-07T22:56:38;98840.41;;;21.89;43.20
34983;BME280;21187;50.976;13.720;2023-09-07T23:01:40;98855.16;;;21.71;43.49
34983;BME280;21187;50.976;13.720;2023-09-07T23:06:42;98840.63;;;21.67;43.47
34983;BME280;21187;50.976;13.720;2023-09-07T23:11:44;98844.13;;;21.71;43.38
34983;BME280;21187;50.976;13.720;2023-09-07T23:16:46;98843.28;;;21.74;43.32
34983;BME280;21187;50.976;13.720;2023-09-07T23:21:48;98845.63;;;21.80;43.19
34983;BME280;21187;50.976;13.720;2023-09-07T23:26:50;98846.00;;;21.82;43.15
34983;BME280;21187;50.976;13.720;2023-09-07T23:31:52;98843.63;;;21.80;43.19
34983;BME280;21187;50.976;13.720;2023-09-07T23:36:55;98842.53;;;21.74;43.28
34983;BME280;21187;50.976;13.720;2023-09-07T23:41:59;98846.94;;;21.64;43.56
34983;BME280;21187;50.976;13.720;2023-09-07T23:47:01;98844.66;;;21.55;43.70
34983;BME280;21187;50.976;13.720;2023-09-07T23:52:03;98843.56;;;21.42;43.89
34983;BME280;21187;50.976;13.720;2023-09-07T23:57:05;98838.97;;;21.28;44.04
